sensor_id;sensor_type;location;lat;lon;timestamp;pressure;altitude;pressure_sealevel;temperature
21336;BMP180;69435;52.670;13.544;2024-03-29T00:01:06;99126.00;;;12.60
21336;BMP180;69435;52.670;13.544;2024-03-29T00:03:52;99139.00;;;12.70
21336;BMP180;69435;52.670;13.544;2024-03-29T00:06:41;99144.00;;;12.60
21336;BMP180;69435;52.670;13.544;2024-03-29T00:09:27;99132.00;;;12.60
21336;BMP180;69435;52.670;13.544;2024-03-29T00:12:14;99136.00;;;12.60
21336;BMP180;69435;52.670;13.544;2024-03-29T00:15:00;99147.00;;;12.60
21336;BMP180;69435;52.670;13.544;2024-03-29T00:17:46;99150.00;;;12.70
21336;BMP180;69435;52.670;13.544;2024-03-29T00:20:32;99150.00;;;12.70
21336;BMP180;69435;52.670;13.544;2024-03-29T00:23:18;99153.00;;;12.70
21336;BMP180;69435;52.670;13.544;2024-03-29T00:26:04;99157.00;;;12.80
21336;BMP180;69435;52.670;13.544;2024-03-29T00:28:49;99164.00;;;12.80
21336;BMP180;69435;52.670;13.544;2024-03-29T00:31:35;99167.00;;;12.80
21336;BMP180;69435;52.670;13.544;2024-03-29T00:34:21;99164.00;;;12.90
21336;BMP180;69435;52.670;13.544;2024-03-29T00:37:07;99163.00;;;12.80
21336;BMP180;69435;52.670;13.544;2024-03-29T00:39:53;99170.00;;;12.90
21336;BMP180;69435;52.670;13.544;2024-03-29T00:42:39;99172.00;;;12.80
21336;BMP180;69435;52.670;13.544;2024-03-29T00:45:25;99178.00;;;12.90
21336;BMP180;69435;52.670;13.544;2024-03-29T00:48:11;99179.00;;;12.90
21336;BMP180;69435;52.670;13.544;2024-03-29T00:51:00;99180.00;;;12.90
21336;BMP180;69435;52.670;13.544;2024-03-29T00:53:46;99176.00;;;12.80
21336;BMP180;69435;52.670;13.544;2024-03-29T00:56:32;99182.00;;;12.80
21336;BMP180;69435;52.670;13.544;2024-03-29T00:59:19;99187.00;;;12.80
21336;BMP180;69435;52.670;13.544;2024-03-29T01:02:05;99190.00;;;12.70
21336;BMP180;69435;52.670;13.544;2024-03-29T01:04:51;99194.00;;;12.60
21336;BMP180;69435;52.670;13.544;2024-03-29T01:07:40;99198.00;;;12.70
21336;BMP180;69435;52.670;13.544;2024-03-29T01:10:26;99183.00;;;12.70
21336;BMP180;69435;52.670;13.544;2024-03-29T01:13:12;99194.00;;;12.70
21336;BMP180;69435;52.670;13.544;2024-03-29T01:15:58;99186.00;;;12.60
21336;BMP180;69435;52.670;13.544;2024-03-29T01:18:44;99194.00;;;12.60
21336;BMP180;69435;52.670;13.544;2024-03-29T01:21:30;99192.00;;;12.50
21336;BMP180;69435;52.670;13.544;2024-03-29T01:24:16;99187.00;;;12.50
21336;BMP180;69435;52.670;13.544;2024-03-29T01:27:02;99191.00;;;12.40
21336;BMP180;69435;52.670;13.544;2024-03-29T01:29:52;99199.00;;;12.30
21336;BMP180;69435;52.670;13.544;2024-03-29T01:32:38;99197.00;;;12.30
21336;BMP180;69435;52.670;13.544;2024-03-29T01:35:24;99195.00;;;12.20
21336;BMP180;69435;52.670;13.544;2024-03-29T01:38:10;99197.00;;;12.10
21336;BMP180;69435;52.670;13.544;2024-03-29T01:40:56;99201.00;;;12.10
21336;BMP180;69435;52.670;13.544;2024-03-29T01:43:42;99200.00;;;12.10
21336;BMP180;69435;52.670;13.544;2024-03-29T01:46:28;99205.00;;;12.10
21336;BMP180;69435;52.670;13.544;2024-03-29T01:49:14;99198.00;;;12.00
21336;BMP180;69435;52.670;13.544;2024-03-29T01:52:02;99208.00;;;12.00
21336;BMP180;69435;52.670;13.544;2024-03-29T01:54:49;99211.00;;;11.90
21336;BMP180;69435;52.670;13.544;2024-03-29T01:57:36;99214.00;;;11.90
21336;BMP180;69435;52.670;13.544;2024-03-29T02:00:23;99212.00;;;11.90
21336;BMP180;69435;52.670;13.544;2024-03-29T02:03:09;99209.00;;;11.80
21336;BMP180;69435;52.670;13.544;2024-03-29T02:05:58;99221.00;;;11.70
21336;BMP180;69435;52.670;13.544;2024-03-29T02:08:52;99215.00;;;11.70
21336;BMP180;69435;52.670;13.544;2024-03-29T02:11:41;99218.00;;;11.60
21336;BMP180;69435;52.670;13.544;2024-03-29T02:14:27;99221.00;;;11.60
21336;BMP180;69435;52.670;13.544;2024-03-29T02:17:13;99215.00;;;11.50
21336;BMP180;69435;52.670;13.544;2024-03-29T02:19:59;99215.00;;;11.40
21336;BMP180;69435;52.670;13.544;2024-03-29T02:23:16;99226.00;;;11.40
21336;BMP180;69435;52.670;13.544;2024-03-29T02:26:04;99238.00;;;11.30
21336;BMP180;69435;52.670;13.544;2024-03-29T02:28:50;99232.00;;;11.30
21336;BMP180;69435;52.670;13.544;2024-03-29T02:31:36;99220.00;;;11.20
21336;BMP180;69435;52.670;13.544;2024-03-29T02:34:22;99219.00;;;11.20
21336;BMP180;69435;52.670;13.544;2024-03-29T02:37:09;99226.00;;;11.20
21336;BMP180;69435;52.670;13.544;2024-03-29T02:39:55;99229.00;;;11.10
21336;BMP180;69435;52.670;13.544;2024-03-29T02:42:41;99226.00;;;11.10
21336;BMP180;69435;52.670;13.544;2024-03-29T02:45:27;99233.00;;;11.00
21336;BMP180;69435;52.670;13.544;2024-03-29T02:48:13;99235.00;;;11.00
21336;BMP180;69435;52.670;13.544;2024-03-29T02:50:59;99222.00;;;11.00
21336;BMP180;69435;52.670;13.544;2024-03-29T02:53:45;99243.00;;;11.00
21336;BMP180;69435;52.670;13.544;2024-03-29T02:56:31;99241.00;;;11.00
21336;BMP180;69435;52.670;13.544;2024-03-29T02:59:17;99243.00;;;11.00
21336;BMP180;69435;52.670;13.544;2024-03-29T03:02:03;99244.00;;;10.90
21336;BMP180;69435;52.670;13.544;2024-03-29T03:04:49;99240.00;;;10.80
21336;BMP180;69435;52.670;13.544;2024-03-29T03:07:35;99227.00;;;10.80
21336;BMP180;69435;52.670;13.544;2024-03-29T03:10:47;99239.00;;;10.80
21336;BMP180;69435;52.670;13.544;2024-03-29T03:13:42;99238.00;;;10.70
21336;BMP180;69435;52.670;13.544;2024-03-29T03:16:28;99247.00;;;10.70
21336;BMP180;69435;52.670;13.544;2024-03-29T03:19:14;99257.00;;;10.60
21336;BMP180;69435;52.670;13.544;2024-03-29T03:22:00;99245.00;;;10.60
21336;BMP180;69435;52.670;13.544;2024-03-29T03:24:46;99237.00;;;10.60
21336;BMP180;69435;52.670;13.544;2024-03-29T03:27:32;99268.00;;;10.50
21336;BMP180;69435;52.670;13.544;2024-03-29T03:30:18;99262.00;;;10.50
21336;BMP180;69435;52.670;13.544;2024-03-29T03:33:04;99255.00;;;10.50
21336;BMP180;69435;52.670;13.544;2024-03-29T03:35:50;99262.00;;;10.40
21336;BMP180;69435;52.670;13.544;2024-03-29T03:38:36;99269.00;;;10.40
21336;BMP180;69435;52.670;13.544;2024-03-29T03:41:24;99283.00;;;10.40
21336;BMP180;69435;52.670;13.544;2024-03-29T03:44:10;99281.00;;;10.30
21336;BMP180;69435;52.670;13.544;2024-03-29T03:46:56;99282.00;;;10.30
21336;BMP180;69435;52.670;13.544;2024-03-29T03:49:42;99288.00;;;10.20
21336;BMP180;69435;52.670;13.544;2024-03-29T03:52:28;99292.00;;;10.20
21336;BMP180;69435;52.670;13.544;2024-03-29T03:55:14;99292.00;;;10.10
21336;BMP180;69435;52.670;13.544;2024-03-29T03:58:00;99288.00;;;10.10
21336;BMP180;69435;52.670;13.544;2024-03-29T04:00:46;99274.00;;;10.10
21336;BMP180;69435;52.670;13.544;2024-03-29T04:03:32;99271.00;;;10.10
21336;BMP180;69435;52.670;13.544;2024-03-29T04:06:18;99259.00;;;10.10
21336;BMP180;69435;52.670;13.544;2024-03-29T04:09:04;99272.00;;;10.10
21336;BMP180;69435;52.670;13.544;2024-03-29T04:11:50;99256.00;;;10.10
21336;BMP180;69435;52.670;13.544;2024-03-29T04:14:36;99262.00;;;10.10
21336;BMP180;69435;52.670;13.544;2024-03-29T04:17:23;99272.00;;;10.10
21336;BMP180;69435;52.670;13.544;2024-03-29T04:20:10;99270.00;;;10.10
21336;BMP180;69435;52.670;13.544;2024-03-29T04:22:56;99255.00;;;10.10
21336;BMP180;69435;52.670;13.544;2024-03-29T04:25:54;99266.00;;;10.10
21336;BMP180;69435;52.670;13.544;2024-03-29T04:28:41;99266.00;;;10.00
21336;BMP180;69435;52.670;13.544;2024-03-29T04:31:26;99260.00;;;10.00
21336;BMP180;69435;52.670;13.544;2024-03-29T04:34:12;99262.00;;;10.00
21336;BMP180;69435;52.670;13.544;2024-03-29T04:36:58;99259.00;;;9.90
21336;BMP180;69435;52.670;13.544;2024-03-29T04:39:46;99234.00;;;9.90
21336;BMP180;69435;52.670;13.544;2024-03-29T04:42:32;99258.00;;;9.90
21336;BMP180;69435;52.670;13.544;2024-03-29T04:45:18;99271.00;;;9.90
21336;BMP180;69435;52.670;13.544;2024-03-29T04:48:07;99266.00;;;9.80
21336;BMP180;69435;52.670;13.544;2024-03-29T04:51:37;99281.00;;;9.80
21336;BMP180;69435;52.670;13.544;2024-03-29T04:54:48;99244.00;;;9.50
21336;BMP180;69435;52.670;13.544;2024-03-29T04:58:10;99227.00;;;9.90
21336;BMP180;69435;52.670;13.544;2024-03-29T05:01:12;99259.00;;;9.90
21336;BMP180;69435;52.670;13.544;2024-03-29T05:04:03;99259.00;;;9.80
21336;BMP180;69435;52.670;13.544;2024-03-29T05:06:49;99262.00;;;9.90
21336;BMP180;69435;52.670;13.544;2024-03-29T05:09:35;99257.00;;;9.80
21336;BMP180;69435;52.670;13.544;2024-03-29T05:12:21;99254.00;;;9.90
21336;BMP180;69435;52.670;13.544;2024-03-29T05:15:07;99268.00;;;10.00
21336;BMP180;69435;52.670;13.544;2024-03-29T05:17:53;99267.00;;;9.90
21336;BMP180;69435;52.670;13.544;2024-03-29T05:20:39;99262.00;;;10.00
21336;BMP180;69435;52.670;13.544;2024-03-29T05:23:26;99276.00;;;10.00
21336;BMP180;69435;52.670;13.544;2024-03-29T05:26:12;99282.00;;;10.00
21336;BMP180;69435;52.670;13.544;2024-03-29T05:28:59;99291.00;;;10.10
21336;BMP180;69435;52.670;13.544;2024-03-29T05:31:45;99300.00;;;10.10
21336;BMP180;69435;52.670;13.544;2024-03-29T05:34:31;99292.00;;;10.20
21336;BMP180;69435;52.670;13.544;2024-03-29T05:37:17;99304.00;;;10.20
21336;BMP180;69435;52.670;13.544;2024-03-29T05:40:05;99310.00;;;10.30
21336;BMP180;69435;52.670;13.544;2024-03-29T05:42:52;99293.00;;;10.30
21336;BMP180;69435;52.670;13.544;2024-03-29T05:45:38;99304.00;;;10.40
21336;BMP180;69435;52.670;13.544;2024-03-29T05:48:24;99277.00;;;10.50
21336;BMP180;69435;52.670;13.544;2024-03-29T05:51:10;99282.00;;;10.40
21336;BMP180;69435;52.670;13.544;2024-03-29T05:53:56;99278.00;;;10.60
21336;BMP180;69435;52.670;13.544;2024-03-29T05:56:42;99278.00;;;10.70
21336;BMP180;69435;52.670;13.544;2024-03-29T05:59:28;99272.00;;;10.80
21336;BMP180;69435;52.670;13.544;2024-03-29T06:02:15;99279.00;;;10.80
21336;BMP180;69435;52.670;13.544;2024-03-29T06:05:01;99275.00;;;10.90
21336;BMP180;69435;52.670;13.544;2024-03-29T06:07:47;99291.00;;;10.90
21336;BMP180;69435;52.670;13.544;2024-03-29T06:10:33;99287.00;;;11.00
21336;BMP180;69435;52.670;13.544;2024-03-29T06:13:19;99311.00;;;11.00
21336;BMP180;69435;52.670;13.544;2024-03-29T06:16:28;99307.00;;;11.10
21336;BMP180;69435;52.670;13.544;2024-03-29T06:19:32;99293.00;;;11.20
21336;BMP180;69435;52.670;13.544;2024-03-29T06:22:18;99305.00;;;11.30
21336;BMP180;69435;52.670;13.544;2024-03-29T06:25:05;99296.00;;;11.40
21336;BMP180;69435;52.670;13.544;2024-03-29T06:27:51;99312.00;;;11.40
21336;BMP180;69435;52.670;13.544;2024-03-29T06:30:37;99314.00;;;11.50
21336;BMP180;69435;52.670;13.544;2024-03-29T06:33:23;99322.00;;;11.60
21336;BMP180;69435;52.670;13.544;2024-03-29T06:36:09;99325.00;;;11.60
21336;BMP180;69435;52.670;13.544;2024-03-29T06:38:54;99331.00;;;11.70
21336;BMP180;69435;52.670;13.544;2024-03-29T06:41:40;99342.00;;;11.80
21336;BMP180;69435;52.670;13.544;2024-03-29T06:44:26;99345.00;;;11.90
21336;BMP180;69435;52.670;13.544;2024-03-29T06:47:12;99339.00;;;12.00
21336;BMP180;69435;52.670;13.544;2024-03-29T06:49:58;99345.00;;;12.10
21336;BMP180;69435;52.670;13.544;2024-03-29T06:52:44;99355.00;;;12.20
21336;BMP180;69435;52.670;13.544;2024-03-29T06:55:31;99363.00;;;12.30
21336;BMP180;69435;52.670;13.544;2024-03-29T06:58:17;99358.00;;;12.50
21336;BMP180;69435;52.670;13.544;2024-03-29T07:01:03;99359.00;;;12.60
21336;BMP180;69435;52.670;13.544;2024-03-29T07:03:49;99365.00;;;12.80
21336;BMP180;69435;52.670;13.544;2024-03-29T07:06:35;99369.00;;;12.90
21336;BMP180;69435;52.670;13.544;2024-03-29T07:09:23;99362.00;;;13.00
21336;BMP180;69435;52.670;13.544;2024-03-29T07:12:09;99357.00;;;13.20
21336;BMP180;69435;52.670;13.544;2024-03-29T07:14:55;99349.00;;;13.30
21336;BMP180;69435;52.670;13.544;2024-03-29T07:17:41;99343.00;;;13.50
21336;BMP180;69435;52.670;13.544;2024-03-29T07:20:29;99336.00;;;13.60
21336;BMP180;69435;52.670;13.544;2024-03-29T07:23:15;99356.00;;;13.80
21336;BMP180;69435;52.670;13.544;2024-03-29T07:26:04;99353.00;;;14.00
21336;BMP180;69435;52.670;13.544;2024-03-29T07:28:50;99369.00;;;14.30
21336;BMP180;69435;52.670;13.544;2024-03-29T07:31:36;99385.00;;;14.50
21336;BMP180;69435;52.670;13.544;2024-03-29T07:34:22;99394.00;;;14.60
21336;BMP180;69435;52.670;13.544;2024-03-29T07:37:08;99392.00;;;14.70
21336;BMP180;69435;52.670;13.544;2024-03-29T07:39:58;99377.00;;;14.80
21336;BMP180;69435;52.670;13.544;2024-03-29T07:42:44;99386.00;;;14.80
21336;BMP180;69435;52.670;13.544;2024-03-29T07:45:29;99400.00;;;14.80
21336;BMP180;69435;52.670;13.544;2024-03-29T07:48:17;99402.00;;;14.80
21336;BMP180;69435;52.670;13.544;2024-03-29T07:51:03;99403.00;;;14.80
21336;BMP180;69435;52.670;13.544;2024-03-29T07:53:49;99392.00;;;14.70
21336;BMP180;69435;52.670;13.544;2024-03-29T07:56:35;99399.00;;;14.60
21336;BMP180;69435;52.670;13.544;2024-03-29T07:59:21;99391.00;;;14.60
21336;BMP180;69435;52.670;13.544;2024-03-29T08:02:08;99396.00;;;14.50
21336;BMP180;69435;52.670;13.544;2024-03-29T08:04:54;99408.00;;;14.50
21336;BMP180;69435;52.670;13.544;2024-03-29T08:07:39;99411.00;;;14.40
21336;BMP180;69435;52.670;13.544;2024-03-29T08:10:26;99398.00;;;14.30
21336;BMP180;69435;52.670;13.544;2024-03-29T08:13:12;99429.00;;;14.30
21336;BMP180;69435;52.670;13.544;2024-03-29T08:16:00;99435.00;;;14.40
21336;BMP180;69435;52.670;13.544;2024-03-29T08:18:46;99429.00;;;14.40
21336;BMP180;69435;52.670;13.544;2024-03-29T08:21:35;99422.00;;;14.50
21336;BMP180;69435;52.670;13.544;2024-03-29T08:24:22;99422.00;;;14.40
21336;BMP180;69435;52.670;13.544;2024-03-29T08:27:08;99418.00;;;14.40
21336;BMP180;69435;52.670;13.544;2024-03-29T08:29:55;99425.00;;;14.40
21336;BMP180;69435;52.670;13.544;2024-03-29T08:32:41;99425.00;;;14.50
21336;BMP180;69435;52.670;13.544;2024-03-29T08:35:27;99435.00;;;14.50
21336;BMP180;69435;52.670;13.544;2024-03-29T08:38:13;99429.00;;;14.60
21336;BMP180;69435;52.670;13.544;2024-03-29T08:40:59;99434.00;;;14.50
21336;BMP180;69435;52.670;13.544;2024-03-29T08:43:45;99434.00;;;14.60
21336;BMP180;69435;52.670;13.544;2024-03-29T08:46:31;99430.00;;;14.70
21336;BMP180;69435;52.670;13.544;2024-03-29T08:49:17;99427.00;;;14.80
21336;BMP180;69435;52.670;13.544;2024-03-29T08:52:03;99421.00;;;14.90
21336;BMP180;69435;52.670;13.544;2024-03-29T08:54:50;99367.00;;;15.10
21336;BMP180;69435;52.670;13.544;2024-03-29T08:57:36;99396.00;;;15.20
21336;BMP180;69435;52.670;13.544;2024-03-29T09:00:22;99399.00;;;15.30
21336;BMP180;69435;52.670;13.544;2024-03-29T09:03:08;99387.00;;;15.40
21336;BMP180;69435;52.670;13.544;2024-03-29T09:05:54;99377.00;;;15.60
21336;BMP180;69435;52.670;13.544;2024-03-29T09:08:40;99381.00;;;15.70
21336;BMP180;69435;52.670;13.544;2024-03-29T09:11:26;99383.00;;;15.90
21336;BMP180;69435;52.670;13.544;2024-03-29T09:14:12;99370.00;;;16.10
21336;BMP180;69435;52.670;13.544;2024-03-29T09:16:58;99395.00;;;16.30
21336;BMP180;69435;52.670;13.544;2024-03-29T09:19:44;99396.00;;;16.40
21336;BMP180;69435;52.670;13.544;2024-03-29T09:22:30;99403.00;;;16.70
21336;BMP180;69435;52.670;13.544;2024-03-29T09:25:16;99407.00;;;16.90
21336;BMP180;69435;52.670;13.544;2024-03-29T09:28:02;99404.00;;;17.00
21336;BMP180;69435;52.670;13.544;2024-03-29T09:30:49;99415.00;;;17.10
21336;BMP180;69435;52.670;13.544;2024-03-29T09:33:35;99411.00;;;17.20
21336;BMP180;69435;52.670;13.544;2024-03-29T09:36:22;99404.00;;;17.20
21336;BMP180;69435;52.670;13.544;2024-03-29T09:39:10;99396.00;;;17.30
21336;BMP180;69435;52.670;13.544;2024-03-29T09:41:58;99393.00;;;17.40
21336;BMP180;69435;52.670;13.544;2024-03-29T09:44:47;99398.00;;;17.40
21336;BMP180;69435;52.670;13.544;2024-03-29T09:47:36;99400.00;;;17.30
21336;BMP180;69435;52.670;13.544;2024-03-29T09:50:22;99403.00;;;17.40
21336;BMP180;69435;52.670;13.544;2024-03-29T09:53:09;99405.00;;;17.30
21336;BMP180;69435;52.670;13.544;2024-03-29T09:55:55;99412.00;;;17.40
21336;BMP180;69435;52.670;13.544;2024-03-29T09:58:42;99414.00;;;17.40
21336;BMP180;69435;52.670;13.544;2024-03-29T10:01:28;99419.00;;;17.40
21336;BMP180;69435;52.670;13.544;2024-03-29T10:04:16;99414.00;;;17.40
21336;BMP180;69435;52.670;13.544;2024-03-29T10:07:04;99411.00;;;17.40
21336;BMP180;69435;52.670;13.544;2024-03-29T10:09:50;99409.00;;;17.50
21336;BMP180;69435;52.670;13.544;2024-03-29T10:12:37;99410.00;;;17.60
21336;BMP180;69435;52.670;13.544;2024-03-29T10:15:24;99414.00;;;17.50
21336;BMP180;69435;52.670;13.544;2024-03-29T10:18:13;99400.00;;;17.50
21336;BMP180;69435;52.670;13.544;2024-03-29T10:21:08;99403.00;;;17.40
21336;BMP180;69435;52.670;13.544;2024-03-29T10:23:54;99402.00;;;17.20
21336;BMP180;69435;52.670;13.544;2024-03-29T10:26:42;99402.00;;;17.10
21336;BMP180;69435;52.670;13.544;2024-03-29T10:29:29;99394.00;;;16.90
21336;BMP180;69435;52.670;13.544;2024-03-29T10:32:15;99389.00;;;16.80
21336;BMP180;69435;52.670;13.544;2024-03-29T10:35:03;99390.00;;;16.80
21336;BMP180;69435;52.670;13.544;2024-03-29T10:37:53;99401.00;;;16.80
21336;BMP180;69435;52.670;13.544;2024-03-29T10:40:40;99394.00;;;16.70
21336;BMP180;69435;52.670;13.544;2024-03-29T10:43:27;99392.00;;;16.60
21336;BMP180;69435;52.670;13.544;2024-03-29T10:46:14;99382.00;;;16.50
21336;BMP180;69435;52.670;13.544;2024-03-29T10:49:09;99382.00;;;16.40
21336;BMP180;69435;52.670;13.544;2024-03-29T10:51:59;99375.00;;;16.20
21336;BMP180;69435;52.670;13.544;2024-03-29T10:54:45;99375.00;;;16.00
21336;BMP180;69435;52.670;13.544;2024-03-29T10:57:34;99386.00;;;15.90
21336;BMP180;69435;52.670;13.544;2024-03-29T11:00:23;99340.00;;;15.90
21336;BMP180;69435;52.670;13.544;2024-03-29T11:06:06;99375.00;;;15.90
21336;BMP180;69435;52.670;13.544;2024-03-29T11:08:56;99370.00;;;15.90
21336;BMP180;69435;52.670;13.544;2024-03-29T11:11:48;99365.00;;;15.80
21336;BMP180;69435;52.670;13.544;2024-03-29T11:14:43;99356.00;;;15.80
21336;BMP180;69435;52.670;13.544;2024-03-29T11:17:31;99350.00;;;15.70
21336;BMP180;69435;52.670;13.544;2024-03-29T11:20:18;99336.00;;;15.70
21336;BMP180;69435;52.670;13.544;2024-03-29T11:23:14;99329.00;;;15.90
21336;BMP180;69435;52.670;13.544;2024-03-29T11:26:01;99317.00;;;16.10
21336;BMP180;69435;52.670;13.544;2024-03-29T11:28:50;99319.00;;;16.40
21336;BMP180;69435;52.670;13.544;2024-03-29T11:31:38;99307.00;;;16.70
21336;BMP180;69435;52.670;13.544;2024-03-29T11:34:25;99309.00;;;17.00
21336;BMP180;69435;52.670;13.544;2024-03-29T11:37:12;99309.00;;;17.30
21336;BMP180;69435;52.670;13.544;2024-03-29T11:40:03;99283.00;;;17.50
21336;BMP180;69435;52.670;13.544;2024-03-29T11:42:52;99312.00;;;17.70
21336;BMP180;69435;52.670;13.544;2024-03-29T11:45:39;99289.00;;;17.70
21336;BMP180;69435;52.670;13.544;2024-03-29T11:48:28;99292.00;;;17.80
21336;BMP180;69435;52.670;13.544;2024-03-29T11:51:15;99293.00;;;17.90
21336;BMP180;69435;52.670;13.544;2024-03-29T11:54:02;99288.00;;;17.90
21336;BMP180;69435;52.670;13.544;2024-03-29T11:56:48;99289.00;;;17.90
21336;BMP180;69435;52.670;13.544;2024-03-29T11:59:34;99291.00;;;18.00
21336;BMP180;69435;52.670;13.544;2024-03-29T12:02:20;99289.00;;;17.90
21336;BMP180;69435;52.670;13.544;2024-03-29T12:05:07;99300.00;;;17.90
21336;BMP180;69435;52.670;13.544;2024-03-29T12:07:58;99298.00;;;17.90
21336;BMP180;69435;52.670;13.544;2024-03-29T12:10:45;99295.00;;;17.90
21336;BMP180;69435;52.670;13.544;2024-03-29T12:13:31;99307.00;;;17.80
21336;BMP180;69435;52.670;13.544;2024-03-29T12:16:17;99296.00;;;17.70
21336;BMP180;69435;52.670;13.544;2024-03-29T12:19:03;99289.00;;;17.60
21336;BMP180;69435;52.670;13.544;2024-03-29T12:21:51;99316.00;;;17.40
21336;BMP180;69435;52.670;13.544;2024-03-29T12:24:38;99309.00;;;17.30
21336;BMP180;69435;52.670;13.544;2024-03-29T12:27:24;99313.00;;;17.20
21336;BMP180;69435;52.670;13.544;2024-03-29T12:30:12;99306.00;;;17.10
21336;BMP180;69435;52.670;13.544;2024-03-29T12:35:54;99313.00;;;17.10
21336;BMP180;69435;52.670;13.544;2024-03-29T12:38:42;99313.00;;;17.10
21336;BMP180;69435;52.670;13.544;2024-03-29T12:41:30;99305.00;;;17.10
21336;BMP180;69435;52.670;13.544;2024-03-29T12:44:16;99299.00;;;17.20
21336;BMP180;69435;52.670;13.544;2024-03-29T12:47:02;99285.00;;;17.30
21336;BMP180;69435;52.670;13.544;2024-03-29T12:49:48;99272.00;;;17.40
21336;BMP180;69435;52.670;13.544;2024-03-29T12:52:39;99257.00;;;17.70
21336;BMP180;69435;52.670;13.544;2024-03-29T12:55:27;99237.00;;;17.90
21336;BMP180;69435;52.670;13.544;2024-03-29T12:58:17;99249.00;;;18.10
21336;BMP180;69435;52.670;13.544;2024-03-29T13:01:06;99254.00;;;18.30
21336;BMP180;69435;52.670;13.544;2024-03-29T13:03:52;99248.00;;;18.50
21336;BMP180;69435;52.670;13.544;2024-03-29T13:06:38;99264.00;;;18.70
21336;BMP180;69435;52.670;13.544;2024-03-29T13:09:24;99259.00;;;18.80
21336;BMP180;69435;52.670;13.544;2024-03-29T13:12:10;99267.00;;;19.00
21336;BMP180;69435;52.670;13.544;2024-03-29T13:15:03;99263.00;;;19.00
21336;BMP180;69435;52.670;13.544;2024-03-29T13:18:00;99271.00;;;19.00
21336;BMP180;69435;52.670;13.544;2024-03-29T13:20:46;99258.00;;;18.90
21336;BMP180;69435;52.670;13.544;2024-03-29T13:23:32;99252.00;;;18.80
21336;BMP180;69435;52.670;13.544;2024-03-29T13:26:18;99242.00;;;18.70
21336;BMP180;69435;52.670;13.544;2024-03-29T13:29:04;99236.00;;;18.60
21336;BMP180;69435;52.670;13.544;2024-03-29T13:31:50;99227.00;;;18.50
21336;BMP180;69435;52.670;13.544;2024-03-29T13:34:36;99217.00;;;18.40
21336;BMP180;69435;52.670;13.544;2024-03-29T13:37:22;99210.00;;;18.50
21336;BMP180;69435;52.670;13.544;2024-03-29T13:40:13;99215.00;;;18.60
21336;BMP180;69435;52.670;13.544;2024-03-29T13:42:59;99206.00;;;18.60
21336;BMP180;69435;52.670;13.544;2024-03-29T13:45:45;99203.00;;;18.70
21336;BMP180;69435;52.670;13.544;2024-03-29T13:48:31;99209.00;;;18.70
21336;BMP180;69435;52.670;13.544;2024-03-29T13:51:17;99221.00;;;18.80
21336;BMP180;69435;52.670;13.544;2024-03-29T13:54:03;99230.00;;;18.90
21336;BMP180;69435;52.670;13.544;2024-03-29T13:56:49;99212.00;;;19.00
21336;BMP180;69435;52.670;13.544;2024-03-29T13:59:35;99226.00;;;19.00
21336;BMP180;69435;52.670;13.544;2024-03-29T14:02:22;99215.00;;;19.00
21336;BMP180;69435;52.670;13.544;2024-03-29T14:05:10;99220.00;;;19.10
21336;BMP180;69435;52.670;13.544;2024-03-29T14:07:56;99208.00;;;19.10
21336;BMP180;69435;52.670;13.544;2024-03-29T14:10:42;99220.00;;;19.00
21336;BMP180;69435;52.670;13.544;2024-03-29T14:13:28;99223.00;;;19.10
21336;BMP180;69435;52.670;13.544;2024-03-29T14:16:14;99231.00;;;19.20
21336;BMP180;69435;52.670;13.544;2024-03-29T14:19:00;99238.00;;;19.20
21336;BMP180;69435;52.670;13.544;2024-03-29T14:21:46;99230.00;;;19.30
21336;BMP180;69435;52.670;13.544;2024-03-29T14:24:33;99229.00;;;19.50
21336;BMP180;69435;52.670;13.544;2024-03-29T14:27:21;99228.00;;;19.50
21336;BMP180;69435;52.670;13.544;2024-03-29T14:30:10;99233.00;;;19.60
21336;BMP180;69435;52.670;13.544;2024-03-29T14:32:57;99216.00;;;19.70
21336;BMP180;69435;52.670;13.544;2024-03-29T14:35:42;99185.00;;;19.70
21336;BMP180;69435;52.670;13.544;2024-03-29T14:38:29;99181.00;;;19.70
21336;BMP180;69435;52.670;13.544;2024-03-29T14:41:15;99181.00;;;19.60
21336;BMP180;69435;52.670;13.544;2024-03-29T14:44:01;99177.00;;;19.50
21336;BMP180;69435;52.670;13.544;2024-03-29T14:46:48;99178.00;;;19.50
21336;BMP180;69435;52.670;13.544;2024-03-29T14:49:34;99203.00;;;19.40
21336;BMP180;69435;52.670;13.544;2024-03-29T14:52:20;99191.00;;;19.30
21336;BMP180;69435;52.670;13.544;2024-03-29T14:55:06;99188.00;;;19.30
21336;BMP180;69435;52.670;13.544;2024-03-29T14:57:52;99172.00;;;19.20
21336;BMP180;69435;52.670;13.544;2024-03-29T15:00:38;99183.00;;;19.20
21336;BMP180;69435;52.670;13.544;2024-03-29T15:03:25;99197.00;;;19.10
21336;BMP180;69435;52.670;13.544;2024-03-29T15:06:11;99199.00;;;19.20
21336;BMP180;69435;52.670;13.544;2024-03-29T15:08:57;99190.00;;;19.10
21336;BMP180;69435;52.670;13.544;2024-03-29T15:11:43;99199.00;;;19.20
21336;BMP180;69435;52.670;13.544;2024-03-29T15:14:30;99218.00;;;19.20
21336;BMP180;69435;52.670;13.544;2024-03-29T15:17:16;99211.00;;;19.30
21336;BMP180;69435;52.670;13.544;2024-03-29T15:20:03;99218.00;;;19.30
21336;BMP180;69435;52.670;13.544;2024-03-29T15:22:50;99208.00;;;19.30
21336;BMP180;69435;52.670;13.544;2024-03-29T15:25:37;99205.00;;;19.30
21336;BMP180;69435;52.670;13.544;2024-03-29T15:28:26;99206.00;;;19.20
21336;BMP180;69435;52.670;13.544;2024-03-29T15:31:31;99203.00;;;19.10
21336;BMP180;69435;52.670;13.544;2024-03-29T15:34:16;99201.00;;;19.10
21336;BMP180;69435;52.670;13.544;2024-03-29T15:37:03;99197.00;;;19.10
21336;BMP180;69435;52.670;13.544;2024-03-29T15:39:49;99211.00;;;19.00
21336;BMP180;69435;52.670;13.544;2024-03-29T15:42:35;99204.00;;;19.00
21336;BMP180;69435;52.670;13.544;2024-03-29T15:45:21;99199.00;;;18.90
21336;BMP180;69435;52.670;13.544;2024-03-29T15:48:07;99217.00;;;18.90
21336;BMP180;69435;52.670;13.544;2024-03-29T15:50:53;99212.00;;;18.90
21336;BMP180;69435;52.670;13.544;2024-03-29T15:53:40;99216.00;;;18.80
21336;BMP180;69435;52.670;13.544;2024-03-29T15:56:27;99220.00;;;18.80